Dover Hill, Indiana
Current Conditions -  °F | °C
As of 10:35 PM on Saturday 25 Oct 2014 (Local Time) from KDCY Reporting Station
Clear Clear  
Wind Chill: 60°   Ceiling: Unl
Heat Index: 60°   Visibility: 10mi
Dew Point: 53°   Wind: 9mph
Humidity: 76%   Direction: 270°W
Pressure: 29.98"   Gusts: NA
Location:  38.6262°N, 86.7615°W
Report Text: KDCY 260335Z AUTO 27008KT 10SM CLR 16/12 A2998 RMK AO2 T01580116
Loading
Personal Weather Stations






























Interactive Weather Map
Tropical Storm Tracking
New forecast layout! Learn more

10-Day Weather Forecast

Advertisements
Track Severe Weather on mobile